createdAt,value
2022-08-26T00:01:09.465Z,19.92
2022-08-26T00:06:13.604Z,19.95
2022-08-26T00:16:22.052Z,19.88
2022-08-26T00:21:26.084Z,19.80
2022-08-26T00:26:30.240Z,19.80
2022-08-26T00:31:34.446Z,19.78
2022-08-26T00:36:38.585Z,19.73
2022-08-26T00:41:42.732Z,19.67
2022-08-26T00:46:47.211Z,19.60
2022-08-26T00:51:51.073Z,19.63
2022-08-26T00:56:55.211Z,19.55
2022-08-26T01:01:59.415Z,19.58
2022-08-26T01:07:03.524Z,19.62
2022-08-26T01:12:05.819Z,19.50
2022-08-26T01:17:09.996Z,19.41
2022-08-26T01:22:12.376Z,19.31
2022-08-26T01:27:16.380Z,19.32
2022-08-26T01:32:18.665Z,19.31
2022-08-26T01:37:22.849Z,19.26
2022-08-26T01:42:25.107Z,19.22
2022-08-26T01:47:30.036Z,19.16
2022-08-26T01:52:33.393Z,18.98
2022-08-26T01:57:37.567Z,18.88
2022-08-26T02:02:41.892Z,18.77
2022-08-26T02:07:45.887Z,18.69
2022-08-26T02:12:50.064Z,18.72
2022-08-26T02:17:54.242Z,18.63
2022-08-26T02:22:58.377Z,18.62
2022-08-26T02:28:02.516Z,18.56
2022-08-26T02:33:06.876Z,18.51
2022-08-26T02:38:11.201Z,18.54
2022-08-26T02:43:15.019Z,18.65
2022-08-26T02:48:19.159Z,18.63
2022-08-26T02:53:25.405Z,18.62
2022-08-26T02:58:27.515Z,18.61
2022-08-26T03:03:31.629Z,18.57
2022-08-26T03:08:35.825Z,18.56
2022-08-26T03:13:39.971Z,18.58
2022-08-26T03:18:44.154Z,18.63
2022-08-26T03:23:48.380Z,18.70
2022-08-26T03:28:50.566Z,18.78
2022-08-26T03:33:57.630Z,18.79
2022-08-26T03:38:58.901Z,18.78
2022-08-26T03:44:03.020Z,18.72
2022-08-26T03:49:07.169Z,18.72
2022-08-26T03:54:11.353Z,18.75
2022-08-26T03:59:15.528Z,18.78
2022-08-26T04:04:22.799Z,18.75
2022-08-26T04:09:23.821Z,18.69
2022-08-26T04:14:27.996Z,18.63
2022-08-26T04:19:32.138Z,18.63
2022-08-26T04:24:36.277Z,18.67
2022-08-26T04:29:40.439Z,18.68
2022-08-26T04:34:44.954Z,18.74
2022-08-26T04:39:48.809Z,18.79
2022-08-26T04:44:52.958Z,18.90
2022-08-26T04:49:57.118Z,19.03
2022-08-26T04:55:01.277Z,19.20
2022-08-26T05:00:05.414Z,19.31
2022-08-26T05:05:09.572Z,19.41
2022-08-26T05:10:13.730Z,19.51
2022-08-26T05:15:16.033Z,19.58
2022-08-26T05:20:25.191Z,19.67
2022-08-26T05:25:22.472Z,19.77
2022-08-26T05:30:26.604Z,19.85
2022-08-26T05:35:30.755Z,19.97
2022-08-26T05:40:34.970Z,20.03
2022-08-26T05:45:43.544Z,20.08
2022-08-26T05:50:43.237Z,20.15
2022-08-26T05:55:47.381Z,20.21
2022-08-26T06:00:51.545Z,20.30
2022-08-26T06:05:55.740Z,20.43
2022-08-26T06:10:59.917Z,20.46
2022-08-26T06:16:04.117Z,20.56
2022-08-26T06:21:08.234Z,20.62
2022-08-26T06:26:12.327Z,20.72
2022-08-26T06:31:16.559Z,20.79
2022-08-26T06:36:20.955Z,20.84
2022-08-26T06:41:24.829Z,20.90
2022-08-26T06:46:29.000Z,21.00
2022-08-26T06:51:33.152Z,21.09
2022-08-26T06:56:35.381Z,21.10
2022-08-26T07:01:43.063Z,21.12
2022-08-26T07:06:43.704Z,21.22
2022-08-26T07:11:45.965Z,21.26
2022-08-26T07:16:50.414Z,21.34
2022-08-26T07:21:52.431Z,21.39
2022-08-26T07:26:56.579Z,21.51
2022-08-26T07:32:00.739Z,21.63
2022-08-26T07:37:04.888Z,21.77
2022-08-26T07:42:09.058Z,21.88
2022-08-26T07:47:25.490Z,21.86
2022-08-26T07:52:17.362Z,21.84
2022-08-26T07:57:21.534Z,21.83
2022-08-26T08:02:25.689Z,21.80
2022-08-26T08:07:44.697Z,21.76
2022-08-26T08:17:38.148Z,21.94
2022-08-26T08:22:42.307Z,22.06
2022-08-26T08:27:46.490Z,22.14
2022-08-26T08:32:50.657Z,22.14
2022-08-26T08:37:54.846Z,22.17
2022-08-26T08:42:59.050Z,22.15
2022-08-26T08:48:03.163Z,22.24
2022-08-26T08:53:08.855Z,22.24
2022-08-26T08:58:11.564Z,22.28
2022-08-26T09:03:15.600Z,22.41
2022-08-26T09:08:20.028Z,22.56
2022-08-26T09:13:25.244Z,22.60
2022-08-26T09:18:26.184Z,22.78
2022-08-26T09:23:28.468Z,22.90
2022-08-26T09:28:32.618Z,23.05
2022-08-26T09:33:36.777Z,23.10
2022-08-26T09:38:40.951Z,23.26
2022-08-26T09:43:45.556Z,23.34
2022-08-26T09:48:51.657Z,23.49
2022-08-26T09:53:53.417Z,23.65
2022-08-26T09:58:57.586Z,23.70
2022-08-26T10:04:01.749Z,23.71
2022-08-26T10:09:08.957Z,23.63
2022-08-26T10:14:10.052Z,23.50
2022-08-26T10:19:14.211Z,23.49
2022-08-26T10:24:18.368Z,23.48
2022-08-26T10:29:22.556Z,23.49
2022-08-26T10:34:26.690Z,23.43
2022-08-26T10:39:30.839Z,23.34
2022-08-26T10:44:34.989Z,23.46
2022-08-26T10:49:39.181Z,23.61
2022-08-26T10:54:43.286Z,23.49
2022-08-26T10:59:47.484Z,23.42
2022-08-26T11:04:51.755Z,23.40
2022-08-26T11:09:53.888Z,23.50
2022-08-26T11:14:59.074Z,23.45
2022-08-26T11:20:02.208Z,23.46
2022-08-26T11:25:04.468Z,23.32
2022-08-26T11:30:06.788Z,23.47
2022-08-26T11:35:10.903Z,23.36
2022-08-26T11:40:15.113Z,23.38
2022-08-26T11:45:19.344Z,23.42
2022-08-26T11:50:23.416Z,23.44
2022-08-26T11:55:29.534Z,23.55
2022-08-26T12:00:33.704Z,23.54
2022-08-26T12:05:35.869Z,23.85
2022-08-26T12:10:40.038Z,23.84
2022-08-26T12:15:44.172Z,23.75
2022-08-26T12:20:48.425Z,23.86
2022-08-26T12:25:52.495Z,23.79
2022-08-26T12:30:56.689Z,23.85
2022-08-26T12:36:01.104Z,23.84
2022-08-26T12:41:04.985Z,23.66
2022-08-26T12:51:13.278Z,23.63
2022-08-26T12:56:17.470Z,23.78
2022-08-26T13:01:21.668Z,23.73
2022-08-26T13:06:25.801Z,23.80
2022-08-26T13:11:29.963Z,23.65
2022-08-26T13:16:34.139Z,23.57
2022-08-26T13:21:37.390Z,23.50
2022-08-26T13:26:40.530Z,23.45
2022-08-26T13:31:42.812Z,23.36
2022-08-26T13:36:46.944Z,23.30
2022-08-26T13:41:51.103Z,23.36
2022-08-26T13:46:55.256Z,23.34
2022-08-26T13:51:59.489Z,23.21
2022-08-26T13:57:03.568Z,23.23
2022-08-26T14:02:07.733Z,23.16
2022-08-26T14:07:11.913Z,23.20
2022-08-26T14:12:16.101Z,23.16
2022-08-26T14:17:20.214Z,23.19
2022-08-26T14:22:24.350Z,23.15
2022-08-26T14:27:28.538Z,23.26
2022-08-26T14:32:32.715Z,23.22
2022-08-26T14:37:36.854Z,23.25
2022-08-26T14:42:41.030Z,23.20
2022-08-26T14:47:45.150Z,23.16
2022-08-26T14:52:49.357Z,23.08
2022-08-26T14:57:53.462Z,23.04
2022-08-26T15:02:57.794Z,22.96
2022-08-26T15:08:01.795Z,22.93
2022-08-26T15:13:05.980Z,22.96
2022-08-26T15:18:08.366Z,22.90
2022-08-26T15:23:12.397Z,22.85
2022-08-26T15:28:14.666Z,22.88
2022-08-26T15:33:18.872Z,22.90
2022-08-26T15:38:22.984Z,22.84
2022-08-26T15:43:29.006Z,22.80
2022-08-26T15:48:31.340Z,22.79
2022-08-26T15:53:35.449Z,22.71
2022-08-26T15:58:39.620Z,22.68
2022-08-26T16:03:43.763Z,22.55
2022-08-26T16:08:47.957Z,22.47
2022-08-26T16:13:52.113Z,22.33
2022-08-26T16:18:56.260Z,22.31
2022-08-26T16:24:00.415Z,22.21
2022-08-26T16:29:04.558Z,22.17
2022-08-26T16:34:08.718Z,22.11
2022-08-26T16:39:12.897Z,22.06
2022-08-26T16:44:17.021Z,22.03
2022-08-26T16:49:21.223Z,21.95
2022-08-26T16:54:25.380Z,21.84
2022-08-26T16:59:29.498Z,21.83
2022-08-26T17:04:33.700Z,21.79
2022-08-26T17:09:37.866Z,21.67
2022-08-26T17:14:40.077Z,21.61
2022-08-26T17:19:47.259Z,21.57
2022-08-26T17:24:48.436Z,21.48
2022-08-26T17:29:50.719Z,21.42
2022-08-26T17:34:54.825Z,21.39
2022-08-26T17:39:59.061Z,21.34
2022-08-26T17:45:03.194Z,21.29
2022-08-26T17:50:07.355Z,21.22
2022-08-26T17:55:11.484Z,21.18
2022-08-26T18:00:15.625Z,21.12
2022-08-26T18:05:19.817Z,21.07
2022-08-26T18:10:24.391Z,21.03
2022-08-26T18:15:28.305Z,20.99
2022-08-26T18:20:32.285Z,20.98
2022-08-26T18:25:36.460Z,20.96
2022-08-26T18:30:40.655Z,20.93
2022-08-26T18:35:44.787Z,20.91
2022-08-26T18:40:48.897Z,20.89
2022-08-26T18:45:53.140Z,20.83
2022-08-26T18:50:57.231Z,20.79
2022-08-26T18:56:01.379Z,20.77
2022-08-26T19:01:05.785Z,20.75
2022-08-26T19:06:09.689Z,20.71
2022-08-26T19:11:14.032Z,20.69
2022-08-26T19:16:18.111Z,20.63
2022-08-26T19:21:20.286Z,20.59
2022-08-26T19:26:24.460Z,20.57
2022-08-26T19:31:26.827Z,20.55
2022-08-26T19:36:30.899Z,20.52
2022-08-26T19:41:37.610Z,20.50
2022-08-26T19:51:43.562Z,20.47
2022-08-26T19:56:49.594Z,20.42
2022-08-26T20:02:00.418Z,20.41
2022-08-26T20:06:57.860Z,20.36
2022-08-26T20:11:59.996Z,20.32
2022-08-26T20:17:04.271Z,20.26
2022-08-26T20:22:08.288Z,20.24
2022-08-26T20:27:12.478Z,20.21
2022-08-26T20:32:16.737Z,20.20
2022-08-26T20:37:21.659Z,20.17
2022-08-26T20:42:24.950Z,20.17
2022-08-26T20:47:29.181Z,20.11
2022-08-26T20:52:33.286Z,20.05
2022-08-26T20:57:37.412Z,19.97
2022-08-26T21:02:41.610Z,19.90
2022-08-26T21:07:45.743Z,19.86
2022-08-26T21:12:49.907Z,19.79
2022-08-26T21:17:54.434Z,19.71
2022-08-26T21:22:56.343Z,19.60
2022-08-26T21:28:00.505Z,19.56
2022-08-26T21:33:04.671Z,19.51
2022-08-26T21:38:09.093Z,19.44
2022-08-26T21:43:16.205Z,19.35
2022-08-26T21:48:17.131Z,19.23
2022-08-26T21:53:21.293Z,19.16
2022-08-26T21:58:25.438Z,18.99
2022-08-26T22:03:29.624Z,18.94
2022-08-26T22:08:33.733Z,18.88
2022-08-26T22:13:37.927Z,18.71
2022-08-26T22:18:46.826Z,18.66
2022-08-26T22:28:50.647Z,18.45
2022-08-26T22:33:54.579Z,18.42
2022-08-26T22:38:58.732Z,18.33
2022-08-26T22:44:02.879Z,18.32
2022-08-26T22:49:07.096Z,18.24
2022-08-26T22:54:11.200Z,18.21
2022-08-26T22:59:15.383Z,18.12
2022-08-26T23:04:17.613Z,18.13
2022-08-26T23:09:21.803Z,18.11
2022-08-26T23:14:24.074Z,18.08
2022-08-26T23:19:28.232Z,17.97
2022-08-26T23:24:30.515Z,17.95
2022-08-26T23:29:34.647Z,17.97
2022-08-26T23:34:38.811Z,17.87
2022-08-26T23:39:42.953Z,17.89
2022-08-26T23:44:47.132Z,17.88
2022-08-26T23:49:51.271Z,17.87
2022-08-26T23:54:55.462Z,17.82
2022-08-26T23:59:57.712Z,17.76
